sensor_id;sensor_type;location;lat;lon;timestamp;P1;durP1;ratioP1;P2;durP2;ratioP2
17461;SDS011;8848;50.810;4.790;2022-09-27T00:01:21;1.55;;;0.70;;
17461;SDS011;8848;50.810;4.790;2022-09-27T00:03:47;1.65;;;1.02;;
17461;SDS011;8848;50.810;4.790;2022-09-27T00:06:14;2.03;;;1.00;;
17461;SDS011;8848;50.810;4.790;2022-09-27T00:08:41;2.40;;;1.00;;
17461;SDS011;8848;50.810;4.790;2022-09-27T00:11:10;2.47;;;1.05;;
17461;SDS011;8848;50.810;4.790;2022-09-27T00:13:37;2.13;;;0.90;;
17461;SDS011;8848;50.810;4.790;2022-09-27T00:16:04;1.05;;;0.77;;
17461;SDS011;8848;50.810;4.790;2022-09-27T00:18:30;1.63;;;0.90;;
17461;SDS011;8848;50.810;4.790;2022-09-27T00:21:03;1.23;;;0.80;;
17461;SDS011;8848;50.810;4.790;2022-09-27T00:23:30;0.90;;;0.70;;
17461;SDS011;8848;50.810;4.790;2022-09-27T00:25:59;1.55;;;0.70;;
17461;SDS011;8848;50.810;4.790;2022-09-27T00:28:25;1.40;;;0.90;;
17461;SDS011;8848;50.810;4.790;2022-09-27T00:30:52;1.42;;;0.80;;
17461;SDS011;8848;50.810;4.790;2022-09-27T00:33:18;0.65;;;0.60;;
17461;SDS011;8848;50.810;4.790;2022-09-27T00:35:45;1.85;;;0.90;;
17461;SDS011;8848;50.810;4.790;2022-09-27T00:38:11;1.38;;;0.80;;
17461;SDS011;8848;50.810;4.790;2022-09-27T00:40:38;1.70;;;0.70;;
17461;SDS011;8848;50.810;4.790;2022-09-27T00:43:14;0.70;;;0.70;;
17461;SDS011;8848;50.810;4.790;2022-09-27T00:45:40;1.17;;;0.70;;
17461;SDS011;8848;50.810;4.790;2022-09-27T00:48:07;0.90;;;0.63;;
17461;SDS011;8848;50.810;4.790;2022-09-27T00:50:35;1.33;;;0.70;;
17461;SDS011;8848;50.810;4.790;2022-09-27T00:55:39;1.23;;;0.77;;
17461;SDS011;8848;50.810;4.790;2022-09-27T00:58:06;1.17;;;0.55;;
17461;SDS011;8848;50.810;4.790;2022-09-27T01:00:32;0.65;;;0.60;;
17461;SDS011;8848;50.810;4.790;2022-09-27T01:02:59;1.33;;;0.80;;
17461;SDS011;8848;50.810;4.790;2022-09-27T01:05:26;1.95;;;0.70;;
17461;SDS011;8848;50.810;4.790;2022-09-27T01:07:53;0.90;;;0.68;;
17461;SDS011;8848;50.810;4.790;2022-09-27T01:10:20;0.70;;;0.70;;
17461;SDS011;8848;50.810;4.790;2022-09-27T01:25:52;0.88;;;0.50;;
17461;SDS011;8848;50.810;4.790;2022-09-27T01:28:29;0.90;;;0.63;;
17461;SDS011;8848;50.810;4.790;2022-09-27T01:33:36;1.02;;;0.60;;
17461;SDS011;8848;50.810;4.790;2022-09-27T01:36:21;0.70;;;0.70;;
17461;SDS011;8848;50.810;4.790;2022-09-27T01:43:44;0.50;;;0.50;;
17461;SDS011;8848;50.810;4.790;2022-09-27T01:46:14;0.52;;;0.50;;
17461;SDS011;8848;50.810;4.790;2022-09-27T01:48:41;0.50;;;0.50;;
17461;SDS011;8848;50.810;4.790;2022-09-27T01:51:13;0.73;;;0.55;;
17461;SDS011;8848;50.810;4.790;2022-09-27T01:53:41;0.80;;;0.50;;
17461;SDS011;8848;50.810;4.790;2022-09-27T01:56:10;1.48;;;0.70;;
17461;SDS011;8848;50.810;4.790;2022-09-27T02:01:11;0.70;;;0.55;;
17461;SDS011;8848;50.810;4.790;2022-09-27T02:03:40;1.08;;;0.55;;
17461;SDS011;8848;50.810;4.790;2022-09-27T02:06:21;2.20;;;0.60;;
17461;SDS011;8848;50.810;4.790;2022-09-27T02:08:52;1.15;;;0.65;;
17461;SDS011;8848;50.810;4.790;2022-09-27T02:11:20;0.65;;;0.50;;
17461;SDS011;8848;50.810;4.790;2022-09-27T02:13:53;0.82;;;0.63;;
17461;SDS011;8848;50.810;4.790;2022-09-27T02:16:27;1.10;;;0.70;;
17461;SDS011;8848;50.810;4.790;2022-09-27T02:19:11;0.30;;;0.30;;
17461;SDS011;8848;50.810;4.790;2022-09-27T02:21:41;1.10;;;0.60;;
17461;SDS011;8848;50.810;4.790;2022-09-27T02:24:11;1.25;;;0.60;;
17461;SDS011;8848;50.810;4.790;2022-09-27T02:26:40;1.75;;;0.60;;
17461;SDS011;8848;50.810;4.790;2022-09-27T02:29:14;1.45;;;0.65;;
17461;SDS011;8848;50.810;4.790;2022-09-27T02:31:42;0.50;;;0.40;;
17461;SDS011;8848;50.810;4.790;2022-09-27T02:34:10;0.77;;;0.60;;
17461;SDS011;8848;50.810;4.790;2022-09-27T02:36:38;0.95;;;0.40;;
17461;SDS011;8848;50.810;4.790;2022-09-27T02:39:04;1.73;;;0.52;;
17461;SDS011;8848;50.810;4.790;2022-09-27T02:41:30;2.75;;;0.70;;
17461;SDS011;8848;50.810;4.790;2022-09-27T02:44:01;0.75;;;0.50;;
17461;SDS011;8848;50.810;4.790;2022-09-27T02:46:34;1.33;;;0.70;;
17461;SDS011;8848;50.810;4.790;2022-09-27T02:52:08;0.88;;;0.57;;
17461;SDS011;8848;50.810;4.790;2022-09-27T03:02:52;1.00;;;0.60;;
17461;SDS011;8848;50.810;4.790;2022-09-27T03:05:17;0.50;;;0.50;;
17461;SDS011;8848;50.810;4.790;2022-09-27T03:07:44;1.00;;;0.70;;
17461;SDS011;8848;50.810;4.790;2022-09-27T03:10:15;0.95;;;0.60;;
17461;SDS011;8848;50.810;4.790;2022-09-27T03:12:42;0.57;;;0.50;;
17461;SDS011;8848;50.810;4.790;2022-09-27T03:15:08;1.70;;;0.60;;
17461;SDS011;8848;50.810;4.790;2022-09-27T03:17:35;0.60;;;0.60;;
17461;SDS011;8848;50.810;4.790;2022-09-27T03:20:01;0.95;;;0.50;;
17461;SDS011;8848;50.810;4.790;2022-09-27T03:22:27;0.60;;;0.45;;
17461;SDS011;8848;50.810;4.790;2022-09-27T03:24:53;0.98;;;0.40;;
17461;SDS011;8848;50.810;4.790;2022-09-27T03:27:19;0.70;;;0.50;;
17461;SDS011;8848;50.810;4.790;2022-09-27T03:29:45;1.08;;;0.60;;
17461;SDS011;8848;50.810;4.790;2022-09-27T03:32:11;0.50;;;0.45;;
17461;SDS011;8848;50.810;4.790;2022-09-27T03:34:37;0.50;;;0.50;;
17461;SDS011;8848;50.810;4.790;2022-09-27T03:37:03;0.60;;;0.43;;
17461;SDS011;8848;50.810;4.790;2022-09-27T03:39:29;0.50;;;0.50;;
17461;SDS011;8848;50.810;4.790;2022-09-27T03:41:55;0.80;;;0.57;;
17461;SDS011;8848;50.810;4.790;2022-09-27T03:44:21;0.90;;;0.60;;
17461;SDS011;8848;50.810;4.790;2022-09-27T03:46:47;0.50;;;0.40;;
17461;SDS011;8848;50.810;4.790;2022-09-27T03:49:13;0.50;;;0.40;;
17461;SDS011;8848;50.810;4.790;2022-09-27T03:51:39;1.13;;;0.70;;
17461;SDS011;8848;50.810;4.790;2022-09-27T03:54:06;0.30;;;0.30;;
17461;SDS011;8848;50.810;4.790;2022-09-27T03:56:32;0.65;;;0.47;;
17461;SDS011;8848;50.810;4.790;2022-09-27T03:58:58;0.63;;;0.43;;
17461;SDS011;8848;50.810;4.790;2022-09-27T04:01:25;0.50;;;0.40;;
17461;SDS011;8848;50.810;4.790;2022-09-27T04:03:51;0.93;;;0.52;;
17461;SDS011;8848;50.810;4.790;2022-09-27T04:06:18;0.77;;;0.50;;
17461;SDS011;8848;50.810;4.790;2022-09-27T04:08:44;0.60;;;0.40;;
17461;SDS011;8848;50.810;4.790;2022-09-27T04:11:11;0.95;;;0.45;;
17461;SDS011;8848;50.810;4.790;2022-09-27T04:13:39;0.73;;;0.50;;
17461;SDS011;8848;50.810;4.790;2022-09-27T04:16:05;0.50;;;0.45;;
17461;SDS011;8848;50.810;4.790;2022-09-27T04:18:31;0.80;;;0.45;;
17461;SDS011;8848;50.810;4.790;2022-09-27T04:20:57;0.60;;;0.50;;
17461;SDS011;8848;50.810;4.790;2022-09-27T04:23:24;0.60;;;0.40;;
17461;SDS011;8848;50.810;4.790;2022-09-27T04:25:50;0.60;;;0.50;;
17461;SDS011;8848;50.810;4.790;2022-09-27T04:28:16;0.50;;;0.50;;
17461;SDS011;8848;50.810;4.790;2022-09-27T04:30:42;0.43;;;0.40;;
17461;SDS011;8848;50.810;4.790;2022-09-27T04:33:08;0.88;;;0.50;;
17461;SDS011;8848;50.810;4.790;2022-09-27T04:35:34;0.60;;;0.30;;
17461;SDS011;8848;50.810;4.790;2022-09-27T04:38:18;0.88;;;0.45;;
17461;SDS011;8848;50.810;4.790;2022-09-27T04:40:48;0.43;;;0.40;;
17461;SDS011;8848;50.810;4.790;2022-09-27T04:43:14;0.95;;;0.60;;
17461;SDS011;8848;50.810;4.790;2022-09-27T04:45:41;0.60;;;0.50;;
17461;SDS011;8848;50.810;4.790;2022-09-27T04:48:08;0.40;;;0.40;;
17461;SDS011;8848;50.810;4.790;2022-09-27T04:50:33;0.65;;;0.40;;
17461;SDS011;8848;50.810;4.790;2022-09-27T04:52:59;0.30;;;0.30;;
17461;SDS011;8848;50.810;4.790;2022-09-27T04:55:25;1.05;;;0.50;;
17461;SDS011;8848;50.810;4.790;2022-09-27T04:57:52;1.17;;;0.57;;
17461;SDS011;8848;50.810;4.790;2022-09-27T05:00:18;0.75;;;0.60;;
17461;SDS011;8848;50.810;4.790;2022-09-27T05:02:44;0.50;;;0.30;;
17461;SDS011;8848;50.810;4.790;2022-09-27T05:05:12;0.77;;;0.40;;
17461;SDS011;8848;50.810;4.790;2022-09-27T05:07:38;0.60;;;0.50;;
17461;SDS011;8848;50.810;4.790;2022-09-27T05:10:05;0.40;;;0.40;;
17461;SDS011;8848;50.810;4.790;2022-09-27T05:12:31;0.65;;;0.50;;
17461;SDS011;8848;50.810;4.790;2022-09-27T05:14:57;0.60;;;0.47;;
17461;SDS011;8848;50.810;4.790;2022-09-27T05:17:23;1.10;;;0.43;;
17461;SDS011;8848;50.810;4.790;2022-09-27T05:19:49;0.47;;;0.40;;
17461;SDS011;8848;50.810;4.790;2022-09-27T05:22:16;0.63;;;0.52;;
17461;SDS011;8848;50.810;4.790;2022-09-27T05:24:42;0.20;;;0.20;;
17461;SDS011;8848;50.810;4.790;2022-09-27T05:27:09;0.35;;;0.32;;
17461;SDS011;8848;50.810;4.790;2022-09-27T05:29:37;1.10;;;0.47;;
17461;SDS011;8848;50.810;4.790;2022-09-27T05:32:03;1.05;;;0.55;;
17461;SDS011;8848;50.810;4.790;2022-09-27T05:34:29;0.63;;;0.60;;
17461;SDS011;8848;50.810;4.790;2022-09-27T05:36:58;0.55;;;0.55;;
17461;SDS011;8848;50.810;4.790;2022-09-27T05:39:24;1.30;;;0.60;;
17461;SDS011;8848;50.810;4.790;2022-09-27T05:41:50;0.50;;;0.50;;
17461;SDS011;8848;50.810;4.790;2022-09-27T05:44:18;0.52;;;0.52;;
17461;SDS011;8848;50.810;4.790;2022-09-27T05:46:44;0.50;;;0.35;;
17461;SDS011;8848;50.810;4.790;2022-09-27T05:49:10;0.68;;;0.50;;
17461;SDS011;8848;50.810;4.790;2022-09-27T05:51:36;0.80;;;0.52;;
17461;SDS011;8848;50.810;4.790;2022-09-27T05:54:02;3.13;;;0.70;;
17461;SDS011;8848;50.810;4.790;2022-09-27T05:56:28;3.28;;;1.00;;
17461;SDS011;8848;50.810;4.790;2022-09-27T05:58:54;3.83;;;1.05;;
17461;SDS011;8848;50.810;4.790;2022-09-27T06:01:20;4.50;;;1.40;;
17461;SDS011;8848;50.810;4.790;2022-09-27T06:03:46;6.75;;;1.77;;
17461;SDS011;8848;50.810;4.790;2022-09-27T06:06:13;7.25;;;1.85;;
17461;SDS011;8848;50.810;4.790;2022-09-27T06:08:40;4.70;;;1.80;;
17461;SDS011;8848;50.810;4.790;2022-09-27T06:11:08;3.75;;;1.75;;
17461;SDS011;8848;50.810;4.790;2022-09-27T06:13:36;8.32;;;1.60;;
17461;SDS011;8848;50.810;4.790;2022-09-27T06:16:03;3.45;;;1.50;;
17461;SDS011;8848;50.810;4.790;2022-09-27T06:18:30;3.90;;;1.70;;
17461;SDS011;8848;50.810;4.790;2022-09-27T06:20:59;4.03;;;1.85;;
17461;SDS011;8848;50.810;4.790;2022-09-27T06:23:25;5.50;;;1.90;;
17461;SDS011;8848;50.810;4.790;2022-09-27T06:25:51;6.18;;;1.65;;
17461;SDS011;8848;50.810;4.790;2022-09-27T06:28:18;3.80;;;1.70;;
17461;SDS011;8848;50.810;4.790;2022-09-27T06:30:45;5.28;;;1.90;;
17461;SDS011;8848;50.810;4.790;2022-09-27T06:33:12;5.28;;;1.80;;
17461;SDS011;8848;50.810;4.790;2022-09-27T06:35:38;4.18;;;1.30;;
17461;SDS011;8848;50.810;4.790;2022-09-27T06:38:06;5.07;;;1.75;;
17461;SDS011;8848;50.810;4.790;2022-09-27T06:40:36;5.15;;;1.63;;
17461;SDS011;8848;50.810;4.790;2022-09-27T06:43:02;5.93;;;1.73;;
17461;SDS011;8848;50.810;4.790;2022-09-27T06:45:29;4.85;;;2.10;;
17461;SDS011;8848;50.810;4.790;2022-09-27T06:47:56;4.47;;;1.55;;
17461;SDS011;8848;50.810;4.790;2022-09-27T06:50:22;3.13;;;1.73;;
17461;SDS011;8848;50.810;4.790;2022-09-27T06:52:48;3.47;;;1.85;;
17461;SDS011;8848;50.810;4.790;2022-09-27T06:55:15;3.33;;;1.40;;
17461;SDS011;8848;50.810;4.790;2022-09-27T06:57:41;4.38;;;1.33;;
17461;SDS011;8848;50.810;4.790;2022-09-27T07:00:26;6.22;;;1.92;;
17461;SDS011;8848;50.810;4.790;2022-09-27T07:02:53;4.05;;;1.75;;
17461;SDS011;8848;50.810;4.790;2022-09-27T07:05:20;2.85;;;1.10;;
17461;SDS011;8848;50.810;4.790;2022-09-27T07:07:46;6.18;;;1.80;;
17461;SDS011;8848;50.810;4.790;2022-09-27T07:10:13;3.67;;;1.75;;
17461;SDS011;8848;50.810;4.790;2022-09-27T07:12:42;2.53;;;1.52;;
17461;SDS011;8848;50.810;4.790;2022-09-27T07:15:11;3.13;;;1.52;;
17461;SDS011;8848;50.810;4.790;2022-09-27T07:17:37;3.85;;;1.92;;
17461;SDS011;8848;50.810;4.790;2022-09-27T07:20:03;4.32;;;2.03;;
17461;SDS011;8848;50.810;4.790;2022-09-27T07:22:29;3.33;;;1.42;;
17461;SDS011;8848;50.810;4.790;2022-09-27T07:24:55;5.70;;;2.03;;
17461;SDS011;8848;50.810;4.790;2022-09-27T07:27:21;3.42;;;1.60;;
17461;SDS011;8848;50.810;4.790;2022-09-27T07:29:49;3.53;;;1.35;;
17461;SDS011;8848;50.810;4.790;2022-09-27T07:32:15;3.80;;;1.90;;
17461;SDS011;8848;50.810;4.790;2022-09-27T07:34:41;3.55;;;1.52;;
17461;SDS011;8848;50.810;4.790;2022-09-27T07:37:07;4.75;;;1.65;;
17461;SDS011;8848;50.810;4.790;2022-09-27T07:39:34;2.38;;;1.30;;
17461;SDS011;8848;50.810;4.790;2022-09-27T07:42:00;3.92;;;1.13;;
17461;SDS011;8848;50.810;4.790;2022-09-27T07:44:26;2.88;;;1.23;;
17461;SDS011;8848;50.810;4.790;2022-09-27T07:46:52;2.90;;;1.33;;
17461;SDS011;8848;50.810;4.790;2022-09-27T07:49:18;3.88;;;1.70;;
17461;SDS011;8848;50.810;4.790;2022-09-27T07:51:44;3.83;;;1.40;;
17461;SDS011;8848;50.810;4.790;2022-09-27T07:54:10;1.92;;;1.25;;
17461;SDS011;8848;50.810;4.790;2022-09-27T07:56:36;1.92;;;1.20;;
17461;SDS011;8848;50.810;4.790;2022-09-27T07:59:02;3.45;;;1.65;;
17461;SDS011;8848;50.810;4.790;2022-09-27T08:01:28;2.58;;;1.40;;
17461;SDS011;8848;50.810;4.790;2022-09-27T08:03:54;2.03;;;1.23;;
17461;SDS011;8848;50.810;4.790;2022-09-27T08:06:22;1.67;;;1.23;;
17461;SDS011;8848;50.810;4.790;2022-09-27T08:08:49;1.92;;;1.10;;
17461;SDS011;8848;50.810;4.790;2022-09-27T08:11:15;2.15;;;1.15;;
17461;SDS011;8848;50.810;4.790;2022-09-27T08:13:42;1.35;;;0.98;;
17461;SDS011;8848;50.810;4.790;2022-09-27T08:16:09;2.30;;;0.98;;
17461;SDS011;8848;50.810;4.790;2022-09-27T08:18:35;2.17;;;1.00;;
17461;SDS011;8848;50.810;4.790;2022-09-27T08:21:01;1.50;;;1.15;;
17461;SDS011;8848;50.810;4.790;2022-09-27T08:23:28;2.65;;;1.35;;
17461;SDS011;8848;50.810;4.790;2022-09-27T08:25:55;2.72;;;1.00;;
17461;SDS011;8848;50.810;4.790;2022-09-27T08:28:23;2.03;;;1.10;;
17461;SDS011;8848;50.810;4.790;2022-09-27T08:30:49;1.40;;;1.20;;
17461;SDS011;8848;50.810;4.790;2022-09-27T08:33:15;2.28;;;1.23;;
17461;SDS011;8848;50.810;4.790;2022-09-27T08:35:41;2.33;;;1.15;;
17461;SDS011;8848;50.810;4.790;2022-09-27T08:38:08;1.50;;;0.93;;
17461;SDS011;8848;50.810;4.790;2022-09-27T08:48:43;2.35;;;1.10;;
17461;SDS011;8848;50.810;4.790;2022-09-27T08:51:12;1.73;;;0.98;;
17461;SDS011;8848;50.810;4.790;2022-09-27T08:53:43;1.70;;;0.98;;
17461;SDS011;8848;50.810;4.790;2022-09-27T08:56:10;1.33;;;0.82;;
17461;SDS011;8848;50.810;4.790;2022-09-27T08:58:48;1.35;;;0.90;;
17461;SDS011;8848;50.810;4.790;2022-09-27T09:01:16;1.50;;;0.90;;
17461;SDS011;8848;50.810;4.790;2022-09-27T09:03:45;1.80;;;1.17;;
17461;SDS011;8848;50.810;4.790;2022-09-27T09:06:25;1.30;;;0.80;;
17461;SDS011;8848;50.810;4.790;2022-09-27T09:14:44;2.05;;;1.00;;
17461;SDS011;8848;50.810;4.790;2022-09-27T09:22:43;2.80;;;1.20;;
17461;SDS011;8848;50.810;4.790;2022-09-27T09:27:34;0.95;;;0.70;;
17461;SDS011;8848;50.810;4.790;2022-09-27T09:30:19;1.23;;;0.88;;
17461;SDS011;8848;50.810;4.790;2022-09-27T09:35:25;1.60;;;0.80;;
17461;SDS011;8848;50.810;4.790;2022-09-27T09:37:54;1.13;;;0.80;;
17461;SDS011;8848;50.810;4.790;2022-09-27T09:40:30;1.08;;;0.68;;
17461;SDS011;8848;50.810;4.790;2022-09-27T09:43:01;1.13;;;0.75;;
17461;SDS011;8848;50.810;4.790;2022-09-27T09:45:34;2.00;;;0.85;;
17461;SDS011;8848;50.810;4.790;2022-09-27T09:50:40;3.40;;;0.80;;
17461;SDS011;8848;50.810;4.790;2022-09-27T09:55:36;1.55;;;0.70;;
17461;SDS011;8848;50.810;4.790;2022-09-27T10:00:29;1.38;;;0.82;;
17461;SDS011;8848;50.810;4.790;2022-09-27T10:02:57;0.93;;;0.85;;
17461;SDS011;8848;50.810;4.790;2022-09-27T10:05:24;0.85;;;0.60;;
17461;SDS011;8848;50.810;4.790;2022-09-27T10:07:51;0.90;;;0.63;;
17461;SDS011;8848;50.810;4.790;2022-09-27T10:10:18;0.73;;;0.60;;
17461;SDS011;8848;50.810;4.790;2022-09-27T10:12:45;1.05;;;0.80;;
17461;SDS011;8848;50.810;4.790;2022-09-27T10:15:21;0.90;;;0.60;;
17461;SDS011;8848;50.810;4.790;2022-09-27T10:17:49;1.33;;;0.60;;
17461;SDS011;8848;50.810;4.790;2022-09-27T10:20:38;1.30;;;0.80;;
17461;SDS011;8848;50.810;4.790;2022-09-27T10:23:14;0.60;;;0.60;;
17461;SDS011;8848;50.810;4.790;2022-09-27T10:25:44;0.60;;;0.57;;
17461;SDS011;8848;50.810;4.790;2022-09-27T10:28:24;1.00;;;0.70;;
17461;SDS011;8848;50.810;4.790;2022-09-27T10:30:54;0.80;;;0.55;;
17461;SDS011;8848;50.810;4.790;2022-09-27T10:33:21;1.02;;;0.60;;
17461;SDS011;8848;50.810;4.790;2022-09-27T10:35:47;0.80;;;0.60;;
17461;SDS011;8848;50.810;4.790;2022-09-27T10:40:43;0.88;;;0.60;;
17461;SDS011;8848;50.810;4.790;2022-09-27T10:43:30;1.02;;;0.57;;
17461;SDS011;8848;50.810;4.790;2022-09-27T10:46:03;1.13;;;0.75;;
17461;SDS011;8848;50.810;4.790;2022-09-27T10:48:31;0.68;;;0.60;;
17461;SDS011;8848;50.810;4.790;2022-09-27T10:51:00;1.20;;;0.70;;
17461;SDS011;8848;50.810;4.790;2022-09-27T10:53:27;1.45;;;0.85;;
17461;SDS011;8848;50.810;4.790;2022-09-27T10:55:54;1.70;;;1.05;;
17461;SDS011;8848;50.810;4.790;2022-09-27T10:58:25;0.73;;;0.63;;
17461;SDS011;8848;50.810;4.790;2022-09-27T11:00:55;1.00;;;0.60;;
17461;SDS011;8848;50.810;4.790;2022-09-27T11:03:22;1.00;;;0.77;;
17461;SDS011;8848;50.810;4.790;2022-09-27T11:05:49;1.20;;;0.70;;
17461;SDS011;8848;50.810;4.790;2022-09-27T11:14:16;0.75;;;0.60;;
17461;SDS011;8848;50.810;4.790;2022-09-27T11:22:01;0.90;;;0.52;;
17461;SDS011;8848;50.810;4.790;2022-09-27T11:32:22;0.82;;;0.75;;
17461;SDS011;8848;50.810;4.790;2022-09-27T11:37:33;1.33;;;1.00;;
17461;SDS011;8848;50.810;4.790;2022-09-27T11:40:12;0.70;;;0.60;;
17461;SDS011;8848;50.810;4.790;2022-09-27T11:50:19;1.90;;;0.68;;
17461;SDS011;8848;50.810;4.790;2022-09-27T11:53:03;1.42;;;0.80;;
17461;SDS011;8848;50.810;4.790;2022-09-27T11:58:12;0.82;;;0.60;;
17461;SDS011;8848;50.810;4.790;2022-09-27T12:10:53;1.05;;;0.77;;
17461;SDS011;8848;50.810;4.790;2022-09-27T12:13:28;1.35;;;0.73;;
17461;SDS011;8848;50.810;4.790;2022-09-27T12:15:56;0.63;;;0.50;;
17461;SDS011;8848;50.810;4.790;2022-09-27T12:18:34;2.13;;;1.10;;
17461;SDS011;8848;50.810;4.790;2022-09-27T12:21:02;2.10;;;0.95;;
17461;SDS011;8848;50.810;4.790;2022-09-27T12:23:39;1.10;;;0.82;;
17461;SDS011;8848;50.810;4.790;2022-09-27T12:26:09;1.25;;;0.90;;
17461;SDS011;8848;50.810;4.790;2022-09-27T12:31:06;0.60;;;0.60;;
17461;SDS011;8848;50.810;4.790;2022-09-27T12:33:36;1.42;;;0.73;;
17461;SDS011;8848;50.810;4.790;2022-09-27T12:36:05;2.08;;;0.80;;
17461;SDS011;8848;50.810;4.790;2022-09-27T12:38:38;0.77;;;0.75;;
17461;SDS011;8848;50.810;4.790;2022-09-27T12:41:10;1.05;;;0.63;;
17461;SDS011;8848;50.810;4.790;2022-09-27T12:43:37;1.48;;;0.73;;
17461;SDS011;8848;50.810;4.790;2022-09-27T12:51:33;1.45;;;0.70;;
17461;SDS011;8848;50.810;4.790;2022-09-27T13:09:41;0.82;;;0.57;;
17461;SDS011;8848;50.810;4.790;2022-09-27T13:12:16;1.10;;;0.73;;
17461;SDS011;8848;50.810;4.790;2022-09-27T13:14:49;0.75;;;0.50;;
17461;SDS011;8848;50.810;4.790;2022-09-27T13:19:57;0.70;;;0.60;;
17461;SDS011;8848;50.810;4.790;2022-09-27T13:24:52;0.75;;;0.55;;
17461;SDS011;8848;50.810;4.790;2022-09-27T13:29:51;2.42;;;0.60;;
17461;SDS011;8848;50.810;4.790;2022-09-27T13:34:47;1.23;;;0.63;;
17461;SDS011;8848;50.810;4.790;2022-09-27T13:37:21;2.00;;;0.93;;
17461;SDS011;8848;50.810;4.790;2022-09-27T13:39:48;1.17;;;0.90;;
17461;SDS011;8848;50.810;4.790;2022-09-27T13:42:20;1.13;;;0.60;;
17461;SDS011;8848;50.810;4.790;2022-09-27T13:50:03;0.85;;;0.50;;
17461;SDS011;8848;50.810;4.790;2022-09-27T13:52:37;0.63;;;0.60;;
17461;SDS011;8848;50.810;4.790;2022-09-27T13:57:53;1.63;;;0.88;;
17461;SDS011;8848;50.810;4.790;2022-09-27T14:00:28;0.93;;;0.60;;
17461;SDS011;8848;50.810;4.790;2022-09-27T14:02:59;0.80;;;0.60;;
17461;SDS011;8848;50.810;4.790;2022-09-27T14:05:31;1.00;;;0.88;;
17461;SDS011;8848;50.810;4.790;2022-09-27T14:07:59;1.48;;;0.70;;
17461;SDS011;8848;50.810;4.790;2022-09-27T14:10:26;0.82;;;0.70;;
17461;SDS011;8848;50.810;4.790;2022-09-27T14:12:53;1.13;;;0.70;;
17461;SDS011;8848;50.810;4.790;2022-09-27T14:15:21;0.70;;;0.60;;
17461;SDS011;8848;50.810;4.790;2022-09-27T14:17:48;0.70;;;0.50;;
17461;SDS011;8848;50.810;4.790;2022-09-27T14:22:59;1.20;;;0.60;;
17461;SDS011;8848;50.810;4.790;2022-09-27T14:25:26;1.00;;;0.60;;
17461;SDS011;8848;50.810;4.790;2022-09-27T14:27:52;1.05;;;0.60;;
17461;SDS011;8848;50.810;4.790;2022-09-27T14:30:22;0.55;;;0.50;;
17461;SDS011;8848;50.810;4.790;2022-09-27T14:32:49;0.80;;;0.68;;
17461;SDS011;8848;50.810;4.790;2022-09-27T14:35:17;1.63;;;0.55;;
17461;SDS011;8848;50.810;4.790;2022-09-27T14:38:03;1.15;;;0.70;;
17461;SDS011;8848;50.810;4.790;2022-09-27T14:40:30;1.13;;;0.75;;
17461;SDS011;8848;50.810;4.790;2022-09-27T14:42:57;1.42;;;0.95;;
17461;SDS011;8848;50.810;4.790;2022-09-27T14:45:42;1.40;;;0.80;;
17461;SDS011;8848;50.810;4.790;2022-09-27T14:48:19;1.95;;;0.75;;
17461;SDS011;8848;50.810;4.790;2022-09-27T14:53:47;1.55;;;0.85;;
17461;SDS011;8848;50.810;4.790;2022-09-27T14:56:18;1.20;;;0.73;;
17461;SDS011;8848;50.810;4.790;2022-09-27T14:58:46;1.67;;;0.88;;
17461;SDS011;8848;50.810;4.790;2022-09-27T15:01:14;1.55;;;0.90;;
17461;SDS011;8848;50.810;4.790;2022-09-27T15:03:41;2.33;;;0.70;;
17461;SDS011;8848;50.810;4.790;2022-09-27T15:06:08;1.20;;;0.90;;
17461;SDS011;8848;50.810;4.790;2022-09-27T15:08:34;0.82;;;0.63;;
17461;SDS011;8848;50.810;4.790;2022-09-27T15:11:04;1.85;;;0.88;;
17461;SDS011;8848;50.810;4.790;2022-09-27T15:13:31;2.05;;;0.88;;
17461;SDS011;8848;50.810;4.790;2022-09-27T15:15:57;1.25;;;0.75;;
17461;SDS011;8848;50.810;4.790;2022-09-27T15:18:32;1.23;;;0.70;;
17461;SDS011;8848;50.810;4.790;2022-09-27T15:20:58;1.35;;;0.90;;
17461;SDS011;8848;50.810;4.790;2022-09-27T15:23:28;1.80;;;0.93;;
17461;SDS011;8848;50.810;4.790;2022-09-27T15:26:17;1.58;;;0.93;;
17461;SDS011;8848;50.810;4.790;2022-09-27T15:28:42;1.85;;;0.88;;
17461;SDS011;8848;50.810;4.790;2022-09-27T15:31:08;1.02;;;0.65;;
17461;SDS011;8848;50.810;4.790;2022-09-27T15:33:34;0.90;;;0.70;;
17461;SDS011;8848;50.810;4.790;2022-09-27T15:36:02;1.33;;;0.70;;
17461;SDS011;8848;50.810;4.790;2022-09-27T15:38:29;1.10;;;0.80;;
17461;SDS011;8848;50.810;4.790;2022-09-27T15:40:57;2.10;;;1.00;;
17461;SDS011;8848;50.810;4.790;2022-09-27T15:43:31;2.20;;;1.17;;
17461;SDS011;8848;50.810;4.790;2022-09-27T15:45:59;1.70;;;1.20;;
17461;SDS011;8848;50.810;4.790;2022-09-27T15:48:27;1.27;;;0.82;;
17461;SDS011;8848;50.810;4.790;2022-09-27T15:50:53;1.40;;;1.00;;
17461;SDS011;8848;50.810;4.790;2022-09-27T15:55:57;1.00;;;0.90;;
17461;SDS011;8848;50.810;4.790;2022-09-27T15:58:23;1.30;;;0.88;;
17461;SDS011;8848;50.810;4.790;2022-09-27T16:00:53;1.33;;;1.02;;
17461;SDS011;8848;50.810;4.790;2022-09-27T16:03:20;1.58;;;1.10;;
17461;SDS011;8848;50.810;4.790;2022-09-27T16:05:46;2.60;;;1.20;;
17461;SDS011;8848;50.810;4.790;2022-09-27T16:08:12;2.03;;;1.10;;
17461;SDS011;8848;50.810;4.790;2022-09-27T16:10:38;1.80;;;1.30;;
17461;SDS011;8848;50.810;4.790;2022-09-27T16:13:06;1.85;;;1.33;;
17461;SDS011;8848;50.810;4.790;2022-09-27T16:15:32;1.52;;;1.25;;
17461;SDS011;8848;50.810;4.790;2022-09-27T16:17:58;1.48;;;1.38;;
17461;SDS011;8848;50.810;4.790;2022-09-27T16:20:25;1.88;;;1.35;;
17461;SDS011;8848;50.810;4.790;2022-09-27T16:22:52;1.45;;;1.33;;
17461;SDS011;8848;50.810;4.790;2022-09-27T16:25:18;4.45;;;1.40;;
17461;SDS011;8848;50.810;4.790;2022-09-27T16:27:45;4.00;;;1.30;;
17461;SDS011;8848;50.810;4.790;2022-09-27T16:30:12;2.25;;;1.30;;
17461;SDS011;8848;50.810;4.790;2022-09-27T16:32:41;3.78;;;1.60;;
17461;SDS011;8848;50.810;4.790;2022-09-27T16:35:08;3.42;;;1.50;;
17461;SDS011;8848;50.810;4.790;2022-09-27T16:37:35;3.90;;;1.45;;
17461;SDS011;8848;50.810;4.790;2022-09-27T16:40:01;2.20;;;1.75;;
17461;SDS011;8848;50.810;4.790;2022-09-27T16:42:28;2.60;;;1.60;;
17461;SDS011;8848;50.810;4.790;2022-09-27T16:44:54;5.47;;;1.60;;
17461;SDS011;8848;50.810;4.790;2022-09-27T16:47:20;1.90;;;1.35;;
17461;SDS011;8848;50.810;4.790;2022-09-27T16:49:46;2.28;;;1.40;;
17461;SDS011;8848;50.810;4.790;2022-09-27T16:52:31;2.78;;;1.33;;
17461;SDS011;8848;50.810;4.790;2022-09-27T16:54:57;2.70;;;1.45;;
17461;SDS011;8848;50.810;4.790;2022-09-27T16:57:24;2.92;;;1.80;;
17461;SDS011;8848;50.810;4.790;2022-09-27T16:59:52;2.28;;;1.42;;
17461;SDS011;8848;50.810;4.790;2022-09-27T17:02:20;1.65;;;1.20;;
17461;SDS011;8848;50.810;4.790;2022-09-27T17:04:46;3.63;;;1.38;;
17461;SDS011;8848;50.810;4.790;2022-09-27T17:07:12;3.03;;;1.38;;
17461;SDS011;8848;50.810;4.790;2022-09-27T17:09:38;4.57;;;1.40;;
17461;SDS011;8848;50.810;4.790;2022-09-27T17:12:04;2.38;;;1.20;;
17461;SDS011;8848;50.810;4.790;2022-09-27T17:14:30;2.03;;;1.45;;
17461;SDS011;8848;50.810;4.790;2022-09-27T17:16:57;2.65;;;1.40;;
17461;SDS011;8848;50.810;4.790;2022-09-27T17:19:23;4.05;;;1.63;;
17461;SDS011;8848;50.810;4.790;2022-09-27T17:21:49;2.33;;;1.77;;
17461;SDS011;8848;50.810;4.790;2022-09-27T17:24:15;3.60;;;1.67;;
17461;SDS011;8848;50.810;4.790;2022-09-27T17:26:42;2.75;;;1.75;;
17461;SDS011;8848;50.810;4.790;2022-09-27T17:29:09;3.83;;;1.58;;
17461;SDS011;8848;50.810;4.790;2022-09-27T17:31:36;1.55;;;1.40;;
17461;SDS011;8848;50.810;4.790;2022-09-27T17:34:04;2.70;;;1.52;;
17461;SDS011;8848;50.810;4.790;2022-09-27T17:36:30;1.92;;;1.25;;
17461;SDS011;8848;50.810;4.790;2022-09-27T17:38:59;1.40;;;1.30;;
17461;SDS011;8848;50.810;4.790;2022-09-27T17:41:26;1.55;;;1.30;;
17461;SDS011;8848;50.810;4.790;2022-09-27T17:43:53;2.88;;;1.80;;
17461;SDS011;8848;50.810;4.790;2022-09-27T17:46:21;1.50;;;1.40;;
17461;SDS011;8848;50.810;4.790;2022-09-27T17:48:47;1.73;;;1.30;;
17461;SDS011;8848;50.810;4.790;2022-09-27T17:51:33;1.20;;;1.10;;